Time;durP1;ratioP1;P1;durP2;ratioP2;P2;SDS_P1;SDS_P2;PMS_P1;PMS_P2;Temp;Humidity;BMP_temperature;BMP_pressure;BME280_temperature;BME280_humidity;BME280_pressure;Samples;Min_cycle;Max_cycle;Signal;HPM_P1;HPM_P2
2021/11/04 00:00:13;;;;;;;44.97;22.33;;;8.20;85.00;;;;;;5031514;28;20033;-76
2021/11/04 00:02:39;;;;;;;44.30;22.10;;;8.30;85.10;;;;;;5039863;28;20388;-76
2021/11/04 00:05:07;;;;;;;55.00;21.63;;;8.30;85.10;;;;;;5031975;28;20033;-80
2021/11/04 00:07:33;;;;;;;68.47;22.48;;;8.30;85.10;;;;;;5047992;28;20037;-76
2021/11/04 00:09:59;;;;;;;36.53;21.85;;;8.30;84.90;;;;;;5053481;28;20025;-76
2021/11/04 00:12:25;;;;;;;32.78;20.95;;;8.30;84.70;;;;;;5027485;28;20025;-81
2021/11/04 00:14:51;;;;;;;50.50;20.25;;;8.20;84.80;;;;;;5028680;28;20404;-81
2021/11/04 00:17:17;;;;;;;62.55;20.95;;;8.30;84.80;;;;;;5051393;28;20013;-81
2021/11/04 00:19:43;;;;;;;93.82;19.92;;;8.30;84.70;;;;;;5052807;28;20030;-76
2021/11/04 00:22:10;;;;;;;41.00;21.00;;;8.30;84.70;;;;;;5035947;28;20038;-76
2021/11/04 00:24:36;;;;;;;50.65;20.05;;;8.30;84.70;;;;;;5053921;28;20092;-76
2021/11/04 00:27:03;;;;;;;69.10;19.02;;;8.30;84.70;;;;;;5054651;28;20045;-76
2021/11/04 00:29:29;;;;;;;54.33;18.75;;;8.20;84.70;;;;;;5040474;28;20044;-76
2021/11/04 00:31:55;;;;;;;37.30;17.67;;;8.20;84.60;;;;;;5029693;28;20025;-76
2021/11/04 00:34:20;;;;;;;35.17;17.02;;;8.10;84.70;;;;;;5020272;28;20404;-81
2021/11/04 00:36:46;;;;;;;44.10;15.85;;;8.10;84.80;;;;;;5040893;28;20124;-81
2021/11/04 00:39:12;;;;;;;107.75;15.80;;;8.10;84.80;;;;;;5039246;28;20029;-81
2021/11/04 00:41:39;;;;;;;98.32;14.52;;;8.10;84.70;;;;;;5033176;28;20096;-81
2021/11/04 00:44:05;;;;;;;81.55;16.45;;;8.10;84.50;;;;;;5043369;28;20029;-76
2021/11/04 00:46:31;;;;;;;76.30;14.48;;;8.00;84.50;;;;;;5053102;28;20399;-76
2021/11/04 00:48:57;;;;;;;54.33;14.40;;;8.10;84.60;;;;;;5039807;28;20056;-77
2021/11/04 00:51:23;;;;;;;47.60;15.27;;;8.00;84.50;;;;;;5039816;28;20059;-76
2021/11/04 00:53:50;;;;;;;39.20;14.48;;;8.00;84.60;;;;;;5030965;28;20114;-76
2021/11/04 00:56:16;;;;;;;47.42;13.23;;;8.00;84.60;;;;;;5042695;28;20115;-81
2021/11/04 00:58:42;;;;;;;41.10;13.02;;;8.10;84.50;;;;;;5028137;28;20030;-81
2021/11/04 01:01:08;;;;;;;56.42;14.27;;;8.00;84.40;;;;;;5030351;28;20037;-80
2021/11/04 01:03:34;;;;;;;48.17;13.68;;;8.00;84.40;;;;;;5013946;28;20029;-81
2021/11/04 01:06:00;;;;;;;52.17;13.20;;;8.00;84.50;;;;;;5031319;28;20045;-76
2021/11/04 01:08:26;;;;;;;47.83;11.98;;;8.00;84.50;;;;;;5010720;28;20061;-76
2021/11/04 01:10:53;;;;;;;53.78;11.32;;;8.00;84.40;;;;;;5006528;28;20499;-80
2021/11/04 01:13:18;;;;;;;76.90;12.00;;;8.00;84.30;;;;;;5030541;28;20427;-81
2021/11/04 01:15:44;;;;;;;85.00;12.55;;;7.90;84.20;;;;;;5041473;28;20013;-76
2021/11/04 01:18:10;;;;;;;62.70;12.13;;;7.90;84.20;;;;;;5041618;28;20481;-76
2021/11/04 01:20:36;;;;;;;48.13;11.07;;;7.90;84.20;;;;;;5010737;28;20022;-75
2021/11/04 01:23:01;;;;;;;24.92;11.00;;;7.90;84.30;;;;;;5001292;28;20464;-80
2021/11/04 01:25:27;;;;;;;82.82;12.38;;;7.90;84.30;;;;;;5031822;28;20045;-80
2021/11/04 01:27:53;;;;;;;61.83;10.77;;;7.90;84.30;;;;;;5014229;28;20041;-80
2021/11/04 01:30:19;;;;;;;62.33;10.30;;;7.90;84.20;;;;;;5030402;28;20038;-81
2021/11/04 01:32:44;;;;;;;70.13;10.70;;;7.80;84.70;;;;;;5031506;28;20037;-80
2021/11/04 01:35:10;;;;;;;82.70;10.70;;;7.80;84.80;;;;;;5031512;28;20075;-80
2021/11/04 01:37:36;;;;;;;86.03;11.55;;;7.80;84.30;;;;;;5031446;28;20079;-76
2021/11/04 01:40:04;;;;;;;102.07;11.05;;;7.80;84.20;;;;;;5029933;28;20523;-76
2021/11/04 01:42:30;;;;;;;56.22;10.68;;;7.80;84.20;;;;;;5013722;28;20022;-76
2021/11/04 01:44:55;;;;;;;25.83;10.25;;;7.80;84.30;;;;;;5029797;28;20369;-76
2021/11/04 01:47:21;;;;;;;26.05;10.82;;;7.80;84.40;;;;;;5030451;28;20041;-76
2021/11/04 01:49:47;;;;;;;30.13;11.13;;;7.80;84.30;;;;;;5029559;28;20033;-75
2021/11/04 01:52:13;;;;;;;53.95;11.35;;;7.80;84.30;;;;;;5029948;28;20033;-76
2021/11/04 01:54:39;;;;;;;52.55;11.45;;;7.80;84.30;;;;;;5031088;28;20455;-75
2021/11/04 01:57:05;;;;;;;49.58;11.13;;;7.80;84.20;;;;;;5031590;28;20443;-75
2021/11/04 01:59:31;;;;;;;25.02;11.63;;;7.80;84.20;;;;;;5030528;28;20035;-76
2021/11/04 02:02:26;;;;;;;38.20;11.60;;;7.70;84.10;;;;;;5030032;28;20468;-76
2021/11/04 02:05:02;;;;;;;34.75;12.20;;;7.70;84.20;;;;;;5025073;28;20041;-75
2021/11/04 02:08:06;;;;;;;41.05;11.82;;;7.70;84.10;;;;;;5029784;28;20121;-75
2021/11/04 02:10:36;;;;;;;25.55;12.43;;;7.70;84.20;;;;;;5011526;28;20025;-75
2021/11/04 02:13:40;;;;;;;30.23;12.35;;;7.70;84.30;;;;;;5017317;28;20488;-75
2021/11/04 02:16:07;;;;;;;37.53;12.93;;;7.70;84.40;;;;;;5022427;28;20095;-75
2021/11/04 02:18:34;;;;;;;43.00;12.55;;;7.60;84.30;;;;;;5029380;28;20034;-79
2021/11/04 02:21:11;;;;;;;48.15;11.73;;;7.60;84.40;;;;;;5034902;28;20359;-75
2021/11/04 02:24:04;;;;;;;43.28;12.27;;;7.60;84.50;;;;;;5013669;28;20881;-75
2021/11/04 02:26:31;;;;;;;42.95;11.90;;;7.60;84.70;;;;;;5007312;28;20037;-75
2021/11/04 02:28:58;;;;;;;41.90;10.48;;;7.60;84.70;;;;;;5029619;28;20065;-76
2021/11/04 02:31:24;;;;;;;24.88;11.77;;;7.60;84.70;;;;;;5031685;28;20362;-76
2021/11/04 02:33:50;;;;;;;25.80;9.95;;;7.60;84.70;;;;;;5028784;28;20021;-75
2021/11/04 02:36:17;;;;;;;19.33;10.77;;;7.60;84.80;;;;;;5030836;28;20053;-75
2021/11/04 02:38:43;;;;;;;21.60;10.27;;;7.60;84.80;;;;;;5028432;28;20125;-75
2021/11/04 02:41:11;;;;;;;24.50;10.20;;;7.60;84.70;;;;;;5029170;28;20481;-81
2021/11/04 02:43:39;;;;;;;29.02;9.90;;;7.60;84.70;;;;;;5030132;28;20103;-80
2021/11/04 02:46:05;;;;;;;33.42;10.25;;;7.60;84.60;;;;;;5030564;28;20029;-81
2021/11/04 02:48:32;;;;;;;24.73;10.10;;;7.60;84.50;;;;;;5026641;28;20029;-80
2021/11/04 02:50:59;;;;;;;25.02;10.18;;;7.60;84.50;;;;;;5027382;28;20045;-81
2021/11/04 02:53:28;;;;;;;18.38;10.43;;;7.60;84.60;;;;;;5027676;28;20033;-76
2021/11/04 02:55:54;;;;;;;21.20;10.63;;;7.60;84.60;;;;;;5029904;28;20473;-76
2021/11/04 02:58:20;;;;;;;31.75;11.57;;;7.60;84.60;;;;;;5028281;28;20035;-76
2021/11/04 03:00:49;;;;;;;25.02;11.15;;;7.60;84.70;;;;;;5030100;28;20440;-76
2021/11/04 03:03:15;;;;;;;27.52;11.15;;;7.70;84.70;;;;;;5030126;28;20063;-76
2021/11/04 03:05:41;;;;;;;27.80;10.73;;;7.60;84.70;;;;;;5028029;28;20086;-76
2021/11/04 03:08:08;;;;;;;24.58;11.35;;;7.70;84.60;;;;;;5029453;28;20021;-76
2021/11/04 03:10:34;;;;;;;24.45;11.23;;;7.60;84.60;;;;;;5028604;28;20041;-80
2021/11/04 03:12:59;;;;;;;17.58;11.35;;;7.70;84.70;;;;;;5025497;28;20323;-80
2021/11/04 03:15:30;;;;;;;19.05;10.82;;;7.60;84.70;;;;;;5028722;28;20018;-80
2021/11/04 03:17:57;;;;;;;25.48;11.60;;;7.60;84.70;;;;;;5028368;28;20013;-80
2021/11/04 03:20:23;;;;;;;23.63;11.25;;;7.60;84.80;;;;;;5028399;28;20040;-80
2021/11/04 03:22:49;;;;;;;17.13;11.50;;;7.60;84.80;;;;;;5030000;28;20017;-81
2021/11/04 03:25:18;;;;;;;21.25;11.80;;;7.60;84.90;;;;;;5034382;28;20052;-77
2021/11/04 03:27:47;;;;;;;22.55;12.00;;;7.60;85.10;;;;;;5032936;28;20036;-79
2021/11/04 03:30:17;;;;;;;24.73;11.43;;;7.60;85.20;;;;;;5029834;28;20112;-76
2021/11/04 03:32:44;;;;;;;22.00;11.75;;;7.60;85.10;;;;;;5028568;28;20511;-75
2021/11/04 03:35:11;;;;;;;19.80;11.90;;;7.70;85.20;;;;;;5027416;28;20592;-76
2021/11/04 03:37:41;;;;;;;17.58;11.70;;;7.70;85.20;;;;;;5028611;28;20025;-76
2021/11/04 03:40:08;;;;;;;19.45;11.95;;;7.70;85.10;;;;;;5027252;28;20084;-76
2021/11/04 03:42:34;;;;;;;17.80;11.63;;;7.70;85.10;;;;;;5017280;28;20392;-81
2021/11/04 03:45:01;;;;;;;20.48;11.98;;;7.70;85.10;;;;;;5027577;28;20044;-79
2021/11/04 03:47:30;;;;;;;20.25;12.25;;;7.70;85.10;;;;;;5018893;28;20030;-80
2021/11/04 03:49:56;;;;;;;20.60;11.90;;;7.70;85.10;;;;;;5027308;28;20041;-80
2021/11/04 03:52:23;;;;;;;26.40;12.65;;;7.70;85.00;;;;;;5012132;28;20091;-80
2021/11/04 03:54:49;;;;;;;17.73;11.82;;;7.70;85.00;;;;;;5032332;28;20087;-80
2021/11/04 03:57:17;;;;;;;30.13;13.13;;;7.70;85.00;;;;;;5034115;28;20086;-80
2021/11/04 03:59:43;;;;;;;19.38;11.45;;;7.80;85.20;;;;;;5031935;28;20125;-79
2021/11/04 04:02:09;;;;;;;24.20;12.98;;;7.80;85.20;;;;;;5032138;28;20116;-80
2021/11/04 04:04:35;;;;;;;16.77;12.38;;;7.80;85.20;;;;;;5031388;28;20124;-80
2021/11/04 04:07:01;;;;;;;34.05;14.23;;;7.80;85.30;;;;;;5032254;28;20104;-80
2021/11/04 04:09:27;;;;;;;46.97;13.80;;;7.80;85.30;;;;;;5031118;28;20017;-81
2021/11/04 04:11:53;;;;;;;50.13;13.35;;;7.80;85.20;;;;;;5033436;28;20026;-76
2021/11/04 04:14:20;;;;;;;26.20;13.43;;;7.80;85.20;;;;;;5031842;28;20113;-76
2021/11/04 04:16:47;;;;;;;82.63;14.35;;;7.80;85.40;;;;;;5031997;28;20029;-77
2021/11/04 04:19:12;;;;;;;44.30;14.32;;;7.80;85.30;;;;;;5014546;28;20090;-76
2021/11/04 04:21:38;;;;;;;50.33;14.20;;;7.80;85.30;;;;;;5033084;28;20045;-76
2021/11/04 04:24:05;;;;;;;83.25;15.02;;;7.80;85.40;;;;;;5033486;28;20442;-76
2021/11/04 04:26:31;;;;;;;70.57;14.75;;;7.80;85.40;;;;;;5031637;28;20527;-76
2021/11/04 04:28:56;;;;;;;79.07;14.40;;;7.80;85.50;;;;;;5031076;28;20033;-76
2021/11/04 04:31:22;;;;;;;26.90;14.38;;;7.80;86.10;;;;;;5032250;28;20038;-75
2021/11/04 04:33:48;;;;;;;26.15;14.13;;;7.80;85.60;;;;;;5032489;28;20074;-76
2021/11/04 04:36:14;;;;;;;32.03;15.02;;;7.80;85.70;;;;;;5030459;28;20046;-76
2021/11/04 04:38:39;;;;;;;27.05;14.60;;;7.80;85.90;;;;;;5010402;28;20037;-76
2021/11/04 04:41:05;;;;;;;29.40;15.55;;;7.80;86.00;;;;;;5024017;28;20034;-76
2021/11/04 04:43:31;;;;;;;25.95;15.18;;;7.80;86.00;;;;;;5015072;28;20112;-80
2021/11/04 04:45:57;;;;;;;26.23;15.07;;;7.90;86.10;;;;;;5032455;28;20040;-80
2021/11/04 04:48:23;;;;;;;24.05;14.57;;;7.80;86.00;;;;;;5014714;28;20572;-80
2021/11/04 04:50:49;;;;;;;25.65;15.27;;;7.90;86.10;;;;;;5030425;28;20060;-80
2021/11/04 04:53:17;;;;;;;25.35;15.35;;;7.90;86.10;;;;;;5032685;28;20101;-81
2021/11/04 04:55:42;;;;;;;29.98;16.48;;;7.90;86.10;;;;;;5031221;28;20041;-80
2021/11/04 04:58:08;;;;;;;62.50;18.70;;;7.90;86.10;;;;;;5032718;28;20480;-80
2021/11/04 05:00:35;;;;;;;34.25;18.77;;;7.90;86.10;;;;;;5031207;28;20033;-80
2021/11/04 05:03:01;;;;;;;40.25;19.77;;;7.90;86.30;;;;;;5031173;28;20029;-80
2021/11/04 05:05:26;;;;;;;37.65;19.65;;;7.90;86.40;;;;;;5031678;28;20366;-80
2021/11/04 05:07:52;;;;;;;39.80;21.55;;;7.90;86.40;;;;;;5032009;28;20072;-80
2021/11/04 05:10:18;;;;;;;38.22;21.52;;;7.90;86.50;;;;;;5030769;28;20041;-80
2021/11/04 05:12:47;;;;;;;36.70;21.33;;;7.90;86.60;;;;;;5031194;28;20516;-80
2021/11/04 05:15:13;;;;;;;39.03;21.75;;;7.90;86.70;;;;;;5031915;28;20029;-80
2021/11/04 05:17:38;;;;;;;36.78;22.20;;;7.90;86.80;;;;;;5029326;28;20033;-79
2021/11/04 05:20:06;;;;;;;38.63;23.88;;;7.90;86.90;;;;;;5031493;28;20477;-79
2021/11/04 05:22:32;;;;;;;38.05;22.90;;;7.90;87.10;;;;;;5031471;28;20117;-80
2021/11/04 05:24:57;;;;;;;39.63;23.73;;;7.90;87.20;;;;;;5030584;28;20041;-80
2021/11/04 05:27:23;;;;;;;40.35;23.17;;;7.90;87.30;;;;;;5032160;28;20034;-81
2021/11/04 05:29:49;;;;;;;38.50;22.92;;;7.80;87.30;;;;;;5010595;28;20072;-80
2021/11/04 05:32:17;;;;;;;39.85;23.92;;;7.90;87.40;;;;;;5026135;28;20076;-76
2021/11/04 05:34:43;;;;;;;36.22;22.23;;;7.80;87.30;;;;;;5031492;28;20029;-76
2021/11/04 05:37:08;;;;;;;36.03;21.17;;;7.90;87.30;;;;;;5037915;28;20041;-80
2021/11/04 05:39:38;;;;;;;36.95;21.45;;;7.90;87.20;;;;;;5031248;28;20029;-76
2021/11/04 05:42:06;;;;;;;34.63;21.15;;;7.90;87.10;;;;;;5031336;28;20033;-76
2021/11/04 05:44:31;;;;;;;36.50;20.90;;;7.90;87.00;;;;;;5030634;28;20056;-80
2021/11/04 05:46:57;;;;;;;39.47;21.88;;;7.90;86.90;;;;;;5031504;28;20030;-76
2021/11/04 05:49:23;;;;;;;33.83;20.88;;;7.90;86.80;;;;;;5029813;28;20500;-75
2021/11/04 05:51:49;;;;;;;35.80;21.45;;;7.90;86.80;;;;;;5031090;28;20424;-75
2021/11/04 05:54:15;;;;;;;40.53;21.65;;;7.90;86.80;;;;;;5030285;28;20099;-76
2021/11/04 05:56:40;;;;;;;36.88;21.17;;;7.90;86.70;;;;;;5029927;28;20515;-80
2021/11/04 05:59:06;;;;;;;39.90;23.17;;;7.90;86.70;;;;;;5031341;28;20021;-80
2021/11/04 06:01:32;;;;;;;43.63;25.52;;;7.90;86.80;;;;;;5031546;28;20068;-80
2021/11/04 06:03:57;;;;;;;48.65;26.05;;;7.90;86.90;;;;;;5029861;28;20034;-80
2021/11/04 06:06:23;;;;;;;49.45;26.52;;;7.90;87.00;;;;;;5030407;28;20080;-80
2021/11/04 06:08:49;;;;;;;64.93;27.52;;;7.90;87.10;;;;;;5031080;28;20047;-76
2021/11/04 06:11:14;;;;;;;47.40;26.33;;;7.90;87.10;;;;;;5013258;28;20128;-75
2021/11/04 06:13:40;;;;;;;50.70;28.00;;;7.90;87.10;;;;;;5031069;28;20439;-76
2021/11/04 06:16:12;;;;;;;47.00;26.38;;;7.90;87.30;;;;;;5029915;28;20021;-76
2021/11/04 06:18:38;;;;;;;45.60;26.02;;;7.90;87.30;;;;;;5029292;28;20042;-76
2021/11/04 06:21:04;;;;;;;50.25;26.60;;;7.90;87.40;;;;;;5028777;28;20040;-77
2021/11/04 06:23:30;;;;;;;44.35;26.00;;;8.00;87.40;;;;;;5029726;28;20041;-80
2021/11/04 06:25:55;;;;;;;46.00;26.70;;;8.00;87.50;;;;;;5027138;28;20074;-80
2021/11/04 06:28:21;;;;;;;47.88;26.35;;;8.00;87.70;;;;;;5029986;28;20477;-80
2021/11/04 06:30:47;;;;;;;45.70;26.95;;;8.00;87.70;;;;;;5029928;28;20086;-80
2021/11/04 06:33:12;;;;;;;45.40;27.25;;;8.00;87.70;;;;;;5030976;28;20040;-81
2021/11/04 06:35:38;;;;;;;51.53;26.80;;;8.00;87.60;;;;;;5030350;28;20053;-77
2021/11/04 06:38:04;;;;;;;51.75;26.60;;;8.00;87.60;;;;;;5028811;28;20025;-76
2021/11/04 06:40:30;;;;;;;60.80;27.42;;;8.00;87.60;;;;;;5032615;28;20025;-75
2021/11/04 06:42:55;;;;;;;54.03;25.95;;;8.00;87.60;;;;;;5029027;28;20084;-80
2021/11/04 06:45:21;;;;;;;85.40;28.27;;;8.00;87.70;;;;;;5012705;28;20029;-80
2021/11/04 06:47:52;;;;;;;97.80;26.52;;;8.00;87.70;;;;;;5012627;28;20120;-80
2021/11/04 06:50:22;;;;;;;128.90;27.15;;;8.00;87.70;;;;;;5030375;28;20052;-80
2021/11/04 06:53:09;;;;;;;45.75;25.88;;;8.00;87.60;;;;;;5028490;28;20507;-80
2021/11/04 06:55:39;;;;;;;69.13;25.52;;;7.90;87.70;;;;;;5028449;28;20025;-76
2021/11/04 06:58:05;;;;;;;50.53;26.95;;;7.90;87.70;;;;;;5002359;28;20083;-77
2021/11/04 07:00:33;;;;;;;46.67;26.15;;;7.90;87.70;;;;;;5028621;28;20484;-76
2021/11/04 07:03:20;;;;;;;48.45;25.38;;;7.90;87.80;;;;;;5029845;28;20472;-76
2021/11/04 07:05:46;;;;;;;99.15;27.73;;;7.90;87.80;;;;;;5029703;28;20026;-77
2021/11/04 07:08:20;;;;;;;54.97;26.90;;;7.90;87.80;;;;;;5029049;28;20043;-76
2021/11/04 07:10:47;;;;;;;60.30;28.23;;;8.00;88.00;;;;;;5028884;28;20048;-76
2021/11/04 07:13:15;;;;;;;138.55;27.20;;;8.00;88.10;;;;;;5028545;28;20037;-76
2021/11/04 07:15:45;;;;;;;315.02;31.33;;;8.00;88.00;;;;;;5028256;28;20037;-81
2021/11/04 07:18:13;;;;;;;65.07;22.63;;;8.00;88.00;;;;;;5028174;28;20592;-80
2021/11/04 07:20:44;;;;;;;79.10;27.05;;;8.00;88.00;;;;;;5028345;28;20029;-77
2021/11/04 07:23:17;;;;;;;52.10;26.38;;;8.00;88.10;;;;;;5028410;28;20615;-76
2021/11/04 07:25:45;;;;;;;56.03;25.63;;;8.00;88.20;;;;;;5029856;28;20488;-77
2021/11/04 07:28:15;;;;;;;29.00;20.83;;;7.90;88.20;;;;;;5014136;28;20030;-76
2021/11/04 07:30:42;;;;;;;43.05;23.17;;;8.00;88.20;;;;;;5017464;28;20397;-76
2021/11/04 07:33:09;;;;;;;89.70;24.88;;;7.90;88.10;;;;;;5020675;28;20040;-76
2021/11/04 07:35:40;;;;;;;46.40;24.02;;;8.00;88.10;;;;;;5027257;28;20049;-76
2021/11/04 07:38:10;;;;;;;39.90;24.13;;;7.90;88.10;;;;;;5027718;28;20350;-76
2021/11/04 07:40:36;;;;;;;56.80;25.63;;;8.00;88.20;;;;;;5029614;28;20522;-77
2021/11/04 07:43:02;;;;;;;57.70;25.02;;;8.00;88.00;;;;;;5027534;28;20030;-79
2021/11/04 07:45:30;;;;;;;36.53;21.35;;;8.00;88.20;;;;;;5023310;28;20060;-80
2021/11/04 07:47:56;;;;;;;65.90;24.23;;;7.90;88.10;;;;;;5025806;28;20053;-80
2021/11/04 07:50:24;;;;;;;27.70;20.02;;;7.90;88.00;;;;;;5027131;28;20037;-79
2021/11/04 07:52:51;;;;;;;96.40;26.48;;;7.90;88.10;;;;;;5026327;28;20029;-80
2021/11/04 07:55:17;;;;;;;65.95;25.70;;;7.80;88.00;;;;;;5022345;28;20022;-79
2021/11/04 07:57:43;;;;;;;38.33;23.55;;;7.80;88.90;;;;;;5027527;28;20044;-78
2021/11/04 08:00:17;;;;;;;41.53;23.45;;;7.80;88.50;;;;;;5028577;28;20053;-78
2021/11/04 08:02:44;;;;;;;37.47;23.50;;;7.80;88.70;;;;;;5029067;28;20033;-78
2021/11/04 08:05:12;;;;;;;33.58;20.08;;;7.80;88.70;;;;;;5027828;28;20022;-80
2021/11/04 08:07:38;;;;;;;42.92;21.30;;;7.90;88.60;;;;;;5028854;28;20025;-79
2021/11/04 08:10:09;;;;;;;52.72;22.00;;;8.00;88.50;;;;;;5029316;28;20481;-79
2021/11/04 08:12:34;;;;;;;29.13;18.95;;;8.00;88.40;;;;;;5025784;28;20507;-79
2021/11/04 08:15:05;;;;;;;36.78;19.45;;;8.00;88.50;;;;;;5026826;28;20029;-78
2021/11/04 08:17:31;;;;;;;35.55;19.02;;;8.00;88.50;;;;;;5027349;28;20032;-78
2021/11/04 08:19:56;;;;;;;41.65;20.30;;;8.00;88.40;;;;;;5028647;28;20030;-75
2021/11/04 08:22:23;;;;;;;28.27;20.25;;;7.90;88.30;;;;;;5028022;28;20052;-76
2021/11/04 08:24:49;;;;;;;25.95;19.65;;;7.90;88.30;;;;;;5028012;28;20044;-75
2021/11/04 08:27:16;;;;;;;25.92;19.42;;;7.90;88.50;;;;;;5027470;28;20314;-76
2021/11/04 08:29:42;;;;;;;26.73;20.17;;;8.00;88.70;;;;;;5028864;28;20112;-75
2021/11/04 08:32:11;;;;;;;26.88;20.67;;;8.00;88.60;;;;;;5029080;28;20590;-78
2021/11/04 08:34:37;;;;;;;24.70;19.40;;;8.10;88.70;;;;;;5028535;28;20056;-78
2021/11/04 08:37:03;;;;;;;24.48;18.20;;;8.20;88.50;;;;;;5027079;28;20029;-79
2021/11/04 08:39:30;;;;;;;21.77;17.60;;;8.30;88.30;;;;;;5028774;28;20116;-79
2021/11/04 08:41:56;;;;;;;24.48;18.20;;;8.40;88.10;;;;;;5032536;28;20021;-79
2021/11/04 08:44:22;;;;;;;21.60;17.70;;;8.40;88.80;;;;;;5032663;28;20393;-76
2021/11/04 08:46:48;;;;;;;23.77;18.17;;;8.50;88.30;;;;;;5032502;28;20045;-76
2021/11/04 08:49:14;;;;;;;22.02;17.98;;;8.50;87.90;;;;;;5032320;28;20034;-77
2021/11/04 08:51:40;;;;;;;22.30;18.20;;;8.50;88.00;;;;;;5031006;28;20477;-76
2021/11/04 08:54:07;;;;;;;22.00;18.17;;;8.60;88.00;;;;;;5034809;28;20476;-76
2021/11/04 08:56:34;;;;;;;18.50;15.30;;;8.60;88.00;;;;;;5053879;28;20116;-76
2021/11/04 08:59:00;;;;;;;21.48;17.58;;;8.70;88.00;;;;;;5039663;28;20030;-79
2021/11/04 09:01:27;;;;;;;18.52;16.00;;;8.70;87.90;;;;;;5038258;28;20147;-79
2021/11/04 09:03:53;;;;;;;21.35;16.15;;;8.80;88.10;;;;;;5044041;28;20469;-79
2021/11/04 09:06:22;;;;;;;20.73;17.02;;;8.90;87.80;;;;;;5060962;28;20067;-83
2021/11/04 09:08:47;;;;;;;21.17;17.67;;;8.90;87.70;;;;;;5033777;28;20045;-75
2021/11/04 09:11:13;;;;;;;22.98;18.27;;;8.90;87.50;;;;;;5056672;28;20555;-76
2021/11/04 09:13:39;;;;;;;19.90;16.55;;;8.90;87.50;;;;;;5037065;28;20037;-78
2021/11/04 09:16:04;;;;;;;20.08;16.38;;;8.90;87.70;;;;;;5052061;28;20037;-80
2021/11/04 09:18:30;;;;;;;19.98;16.92;;;8.90;87.80;;;;;;5042391;28;20029;-76
2021/11/04 09:20:56;;;;;;;20.45;17.10;;;8.90;87.80;;;;;;5004373;28;20049;-76
2021/11/04 09:23:21;;;;;;;20.35;16.25;;;8.90;87.90;;;;;;5035481;28;20104;-75
2021/11/04 09:25:47;;;;;;;18.60;14.90;;;8.90;88.00;;;;;;5032251;28;20037;-78
2021/11/04 09:28:13;;;;;;;16.33;14.18;;;8.90;87.90;;;;;;5036369;28;20183;-78
2021/11/04 09:30:41;;;;;;;19.02;14.85;;;9.00;87.70;;;;;;5052016;28;20037;-77
2021/11/04 09:33:06;;;;;;;19.85;16.13;;;9.00;87.70;;;;;;5041470;28;20022;-77
2021/11/04 09:35:35;;;;;;;20.45;16.05;;;9.00;87.80;;;;;;5033462;28;20049;-77
2021/11/04 09:38:01;;;;;;;20.30;16.17;;;9.10;87.90;;;;;;5053613;28;20476;-77
2021/11/04 09:40:27;;;;;;;23.13;18.88;;;9.00;87.70;;;;;;5040041;28;20074;-81
2021/11/04 09:42:54;;;;;;;22.85;17.90;;;9.00;87.40;;;;;;5040620;28;20091;-78
2021/11/04 09:45:20;;;;;;;22.88;17.98;;;9.00;87.50;;;;;;5043289;28;20039;-80
2021/11/04 09:47:45;;;;;;;23.10;18.42;;;9.00;87.50;;;;;;5057787;28;20025;-78
2021/11/04 09:50:17;;;;;;;24.17;18.48;;;9.00;87.40;;;;;;5039355;28;20389;-79
2021/11/04 09:52:44;;;;;;;23.87;19.17;;;9.00;87.50;;;;;;5041727;28;20036;-76
2021/11/04 09:55:17;;;;;;;24.38;18.92;;;9.00;87.50;;;;;;5035306;28;21650;-75
2021/11/04 09:57:46;;;;;;;24.05;18.73;;;9.00;87.70;;;;;;5032822;28;20022;-76
2021/11/04 10:00:15;;;;;;;24.65;18.73;;;9.10;87.70;;;;;;5030421;28;20105;-75
2021/11/04 10:02:44;;;;;;;26.23;19.60;;;9.10;87.80;;;;;;5027857;28;20500;-76
2021/11/04 10:05:13;;;;;;;24.05;18.90;;;9.20;87.90;;;;;;5025322;28;20392;-76
2021/11/04 10:07:41;;;;;;;23.30;19.00;;;9.20;87.80;;;;;;5026569;28;20026;-75
2021/11/04 10:10:07;;;;;;;24.35;18.88;;;9.20;87.60;;;;;;5029811;28;20083;-75
2021/11/04 10:12:33;;;;;;;23.27;18.80;;;9.20;87.40;;;;;;5021523;28;20037;-75
2021/11/04 10:15:18;;;;;;;23.42;19.15;;;9.20;87.00;;;;;;5039567;28;20041;-75
2021/11/04 10:17:44;;;;;;;23.10;18.92;;;9.20;86.70;;;;;;5030163;28;20033;-79
2021/11/04 10:20:22;;;;;;;24.88;19.52;;;9.20;87.10;;;;;;5024604;28;20055;-79
2021/11/04 10:23:10;;;;;;;23.80;19.17;;;9.20;86.90;;;;;;5023761;28;20424;-79
2021/11/04 10:25:37;;;;;;;21.70;16.70;;;9.20;87.10;;;;;;5025070;28;20146;-79
2021/11/04 10:28:28;;;;;;;25.55;19.05;;;9.20;87.20;;;;;;5027186;28;20029;-80
2021/11/04 10:30:55;;;;;;;25.15;20.23;;;9.20;87.10;;;;;;5028256;28;20029;-80
2021/11/04 10:33:28;;;;;;;23.65;19.15;;;9.30;87.20;;;;;;5021414;28;20108;-80
2021/11/04 10:36:10;;;;;;;23.38;18.63;;;9.30;87.00;;;;;;5023637;28;20060;-79
2021/11/04 10:38:57;;;;;;;26.15;19.70;;;9.30;87.00;;;;;;5026448;28;20025;-80
2021/11/04 10:41:28;;;;;;;25.92;19.77;;;9.30;87.00;;;;;;5025221;28;20029;-80
2021/11/04 10:44:04;;;;;;;25.20;20.30;;;9.30;86.70;;;;;;5028812;28;20107;-80
2021/11/04 10:46:30;;;;;;;26.55;19.65;;;9.30;86.40;;;;;;5026553;28;20088;-79
2021/11/04 10:49:00;;;;;;;25.88;20.27;;;9.30;86.30;;;;;;5022225;28;20029;-80
2021/11/04 10:51:27;;;;;;;24.67;20.27;;;9.30;86.10;;;;;;5025754;28;20080;-81
2021/11/04 10:54:05;;;;;;;26.83;20.13;;;9.30;86.30;;;;;;5027278;28;20034;-77
2021/11/04 10:56:33;;;;;;;26.58;20.88;;;9.30;86.30;;;;;;5028517;28;20038;-80
2021/11/04 10:59:16;;;;;;;25.95;20.55;;;9.30;86.30;;;;;;5029089;28;20048;-79
2021/11/04 11:01:45;;;;;;;27.92;21.00;;;9.30;86.50;;;;;;5030852;28;20018;-87
2021/11/04 11:04:17;;;;;;;29.35;21.65;;;9.30;86.50;;;;;;5029843;28;20033;-86
2021/11/04 11:06:48;;;;;;;27.73;20.10;;;9.30;86.40;;;;;;5014785;28;20060;-85
2021/11/04 11:09:17;;;;;;;27.80;20.48;;;9.30;86.40;;;;;;5029892;28;20413;-85
2021/11/04 11:11:49;;;;;;;30.15;22.60;;;9.30;86.40;;;;;;5020139;28;20033;-85
2021/11/04 11:14:16;;;;;;;29.00;21.48;;;9.30;86.50;;;;;;5021017;28;20435;-85
2021/11/04 11:16:43;;;;;;;30.60;22.10;;;9.30;86.40;;;;;;5024598;28;20113;-85
2021/11/04 11:19:10;;;;;;;28.80;21.42;;;9.30;86.30;;;;;;5022928;28;20102;-85
2021/11/04 11:21:43;;;;;;;29.20;22.15;;;9.30;86.20;;;;;;5027024;28;20104;-86
2021/11/04 11:24:12;;;;;;;24.13;19.77;;;9.40;86.20;;;;;;5005753;28;20120;-86
2021/11/04 11:26:39;;;;;;;26.20;20.38;;;9.40;86.20;;;;;;5015268;28;20044;-77
2021/11/04 11:29:05;;;;;;;27.17;20.58;;;9.40;86.30;;;;;;5026640;28;20029;-77
2021/11/04 11:31:31;;;;;;;26.17;21.23;;;9.50;86.60;;;;;;5027407;28;20032;-75
2021/11/04 11:34:06;;;;;;;27.02;19.58;;;9.50;86.80;;;;;;5026016;28;20040;-76
2021/11/04 11:36:32;;;;;;;26.10;19.70;;;9.50;86.80;;;;;;5023903;28;20092;-76
2021/11/04 11:38:59;;;;;;;26.85;21.05;;;9.60;86.50;;;;;;5017232;28;20392;-76
2021/11/04 11:41:47;;;;;;;25.05;19.95;;;9.50;86.00;;;;;;5023981;28;20454;-76
2021/11/04 11:44:13;;;;;;;26.90;21.55;;;9.50;85.90;;;;;;5021818;28;20040;-75
2021/11/04 11:47:03;;;;;;;25.45;20.38;;;9.50;86.20;;;;;;5019702;28;20038;-76
2021/11/04 11:49:33;;;;;;;27.92;20.67;;;9.60;86.90;;;;;;5025294;28;20037;-76
2021/11/04 11:51:59;;;;;;;26.00;19.48;;;9.60;86.40;;;;;;5024606;28;20439;-84
2021/11/04 11:54:53;;;;;;;26.65;20.20;;;9.70;86.50;;;;;;5007136;28;20372;-84
2021/11/04 11:57:19;;;;;;;27.70;21.55;;;9.70;86.20;;;;;;5024812;28;20500;-84
2021/11/04 11:59:53;;;;;;;32.05;22.20;;;9.70;85.80;;;;;;5024296;28;20159;-83
2021/11/04 12:02:42;;;;;;;29.40;23.30;;;9.70;85.60;;;;;;5027360;28;20029;-83
2021/11/04 12:05:28;;;;;;;32.00;22.08;;;9.70;85.60;;;;;;5020479;28;20591;-84
2021/11/04 12:08:19;;;;;;;29.45;21.15;;;9.80;85.50;;;;;;5018218;28;20091;-83
2021/11/04 12:10:46;;;;;;;25.52;20.58;;;9.90;85.30;;;;;;5025761;28;20036;-83
2021/11/04 12:13:34;;;;;;;25.85;21.42;;;9.90;85.20;;;;;;5023697;28;20491;-83
2021/11/04 12:16:15;;;;;;;24.70;19.95;;;10.00;84.70;;;;;;5027527;28;20025;-76
2021/11/04 12:19:08;;;;;;;26.08;19.88;;;10.00;84.90;;;;;;5027591;28;20389;-75
2021/11/04 12:21:37;;;;;;;24.77;17.63;;;10.00;85.10;;;;;;5028081;28;20460;-75
2021/11/04 12:24:08;;;;;;;23.48;18.52;;;10.20;85.20;;;;;;5030119;28;20033;-75
2021/11/04 12:26:40;;;;;;;21.33;17.80;;;10.20;84.60;;;;;;5028407;28;20095;-76
2021/11/04 12:29:12;;;;;;;25.30;18.30;;;10.30;84.90;;;;;;5026781;28;20018;-77
2021/11/04 12:31:40;;;;;;;;;;;10.40;84.40;;;;;;5022737;28;20086;-76
2021/11/04 12:34:06;;;;;;;18.83;15.85;;;10.50;84.70;;;;;;5029362;28;19940;-76
2021/11/04 12:36:34;;;;;;;20.77;16.95;;;11.00;84.20;;;;;;5031504;28;20493;-75
2021/11/04 12:39:02;;;;;;;21.60;17.13;;;11.10;83.10;;;;;;5021516;28;20278;-74
2021/11/04 12:41:28;;;;;;;20.17;16.63;;;11.10;82.80;;;;;;5026902;28;20033;-77